This is the latest recevied weather packets stored in our database for station/object N5RPG. If no packets are shown the sender has not sent any weather packets the latest 10 day(s).
| Time | Temp. | Humidity | Pressure | Rain* | Wind** | Luminosity | Snow |
|---|---|---|---|---|---|---|---|
| 1778017350 | 30° C | 63% | 1006.6 hPa | 0 mm | - | 241 W/m² | - |
| 1778017047 | 30.56° C | 62% | 1006.7 hPa | 0 mm | - | 253 W/m² | - |
| 1778016744 | 30.56° C | 63% | 1006.6 hPa | 0 mm | - | 556 W/m² | - |
| 1778016440 | 30° C | 63% | 1006.6 hPa | 0 mm | - | 571 W/m² | - |
| 1778016138 | 30° C | 64% | 1006.7 hPa | 0 mm | - | 680 W/m² | - |
| 1778015834 | 29.44° C | 65% | 1006.7 hPa | 0 mm | - | 709 W/m² | - |
| 1778015532 | 29.44° C | 65% | 1006.8 hPa | 0 mm | - | 797 W/m² | - |
| 1778015228 | 28.89° C | 67% | 1006.6 hPa | 0 mm | - | 266 W/m² | - |
| 1778014925 | 28.89° C | 67% | 1006.8 hPa | 0 mm | - | 593 W/m² | - |
| 1778014623 | 28.89° C | 69% | 1006.7 hPa | 0 mm | - | 712 W/m² | - |
| 1778014320 | 28.89° C | 67% | 1007 hPa | 0 mm | - | 276 W/m² | - |
| 1778014017 | 28.89° C | 68% | 1007 hPa | 0 mm | - | 631 W/m² | - |
| 1778013715 | 28.89° C | 68% | 1007.1 hPa | 0 mm | - | 616 W/m² | - |
| 1778013412 | 28.89° C | 69% | 1007.3 hPa | 0 mm | - | 896 W/m² | - |
| 1778013108 | 28.89° C | 69% | 1007.1 hPa | 0 mm | - | 549 W/m² | - |
| 1778012804 | 28.33° C | 68% | 1007.2 hPa | 0 mm | - | 314 W/m² | - |
| 1778012500 | 28.33° C | 68% | 1007.2 hPa | 0 mm | - | 393 W/m² | - |
| 1778012197 | 28.89° C | 67% | 1007.3 hPa | 0 mm | - | 284 W/m² | - |
| 1778011895 | 28.33° C | 68% | 1007.1 hPa | 0 mm | - | 364 W/m² | - |
| 1778011593 | 28.33° C | 69% | 1007.3 hPa | 0 mm | - | 355 W/m² | - |
| 1778011290 | 28.33° C | 70% | 1007.3 hPa | 0 mm | - | 476 W/m² | - |
| 1778010985 | 28.33° C | 67% | 1007.4 hPa | 0 mm | - | 167 W/m² | - |
| 1778010683 | 28.33° C | 67% | 1007.3 hPa | 0 mm | - | 559 W/m² | - |
| 1778010380 | 28.33° C | 68% | 1007.2 hPa | 0 mm | - | 381 W/m² | - |
| 1778010076 | 28.89° C | 67% | 1007.3 hPa | 0 mm | - | 435 W/m² | - |
* Rain latest hour (hover to see other rain measurements)
** Current wind speed in m/s (hover to see current wind gust speed)